createdAt,value
2019-02-06T00:00:13.651Z,-0.10
2019-02-06T00:02:41.657Z,-0.10
2019-02-06T00:05:14.080Z,-0.10
2019-02-06T00:07:39.204Z,-0.20
2019-02-06T00:10:07.194Z,-0.30
2019-02-06T00:12:34.581Z,-0.30
2019-02-06T00:15:03.104Z,-0.10
2019-02-06T00:17:30.338Z,-0.10
2019-02-06T00:19:57.779Z,0.00
2019-02-06T00:22:24.908Z,0.00
2019-02-06T00:24:52.668Z,-0.20
2019-02-06T00:27:20.314Z,-0.30
2019-02-06T00:29:48.087Z,-0.50
2019-02-06T00:32:15.545Z,-0.60
2019-02-06T00:34:42.916Z,-0.70
2019-02-06T00:37:10.890Z,-0.70
2019-02-06T00:39:38.670Z,-0.80
2019-02-06T00:42:06.526Z,-0.90
2019-02-06T00:44:34.872Z,-0.90
2019-02-06T00:47:02.239Z,-1.00
2019-02-06T00:49:29.744Z,-0.90
2019-02-06T00:51:57.546Z,-0.80
2019-02-06T00:54:24.975Z,-0.70
2019-02-06T00:56:52.485Z,-0.80
2019-02-06T00:59:19.990Z,-0.90
2019-02-06T01:01:48.039Z,-1.10
2019-02-06T01:04:15.930Z,-1.10
2019-02-06T01:06:44.143Z,-1.20
2019-02-06T01:09:12.252Z,-1.30
2019-02-06T01:11:39.878Z,-1.10
2019-02-06T01:14:07.756Z,-1.20
2019-02-06T01:16:35.410Z,-1.40
2019-02-06T01:19:03.528Z,-1.40
2019-02-06T01:21:30.789Z,-1.50
2019-02-06T01:23:58.456Z,-1.60
2019-02-06T01:26:25.985Z,-1.60
2019-02-06T01:28:53.389Z,-1.60
2019-02-06T01:31:22.951Z,-1.70
2019-02-06T01:33:50.325Z,-1.70
2019-02-06T01:36:18.195Z,-1.80
2019-02-06T01:38:45.719Z,-1.80
2019-02-06T01:41:13.526Z,-1.80
2019-02-06T01:43:41.348Z,-1.70
2019-02-06T01:46:09.220Z,-1.70
2019-02-06T01:48:36.327Z,-1.70
2019-02-06T01:51:03.903Z,-1.80
2019-02-06T01:53:31.958Z,-1.70
2019-02-06T01:56:00.284Z,-1.80
2019-02-06T01:58:27.642Z,-1.90
2019-02-06T02:00:55.698Z,-1.90
2019-02-06T02:03:23.158Z,-1.90
2019-02-06T02:06:01.978Z,-1.90
2019-02-06T02:08:21.305Z,-1.70
2019-02-06T02:10:49.421Z,-1.90
2019-02-06T02:13:18.095Z,-2.00
2019-02-06T02:15:45.880Z,-2.20
2019-02-06T02:18:13.651Z,-2.10
2019-02-06T02:20:41.111Z,-2.20
2019-02-06T02:23:09.041Z,-2.20
2019-02-06T02:25:36.402Z,-2.20
2019-02-06T02:28:04.484Z,-2.20
2019-02-06T02:30:38.893Z,-2.20
2019-02-06T02:33:06.330Z,-2.30
2019-02-06T02:35:33.834Z,-2.30
2019-02-06T02:38:01.237Z,-2.30
2019-02-06T02:40:28.598Z,-2.40
2019-02-06T02:42:56.511Z,-2.30
2019-02-06T02:45:24.828Z,-2.40
2019-02-06T02:47:52.688Z,-2.40
2019-02-06T02:50:20.688Z,-2.40
2019-02-06T02:52:48.287Z,-2.30
2019-02-06T02:55:16.215Z,-2.50
2019-02-06T02:57:44.019Z,-2.50
2019-02-06T03:00:15.683Z,-2.60
2019-02-06T03:03:03.229Z,-2.50
2019-02-06T03:05:33.222Z,-2.30
2019-02-06T03:08:01.010Z,-2.30
2019-02-06T03:10:28.565Z,-2.40
2019-02-06T03:12:55.992Z,-2.30
2019-02-06T03:15:24.505Z,-2.40
2019-02-06T03:17:52.267Z,-2.40
2019-02-06T03:20:20.356Z,-2.60
2019-02-06T03:22:48.567Z,-2.70
2019-02-06T03:25:15.935Z,-2.60
2019-02-06T03:27:43.833Z,-2.60
2019-02-06T03:30:13.510Z,-2.60
2019-02-06T03:32:41.423Z,-2.60
2019-02-06T03:35:09.098Z,-2.60
2019-02-06T03:37:36.850Z,-2.50
2019-02-06T03:40:06.816Z,-2.30
2019-02-06T03:42:34.462Z,-2.40
2019-02-06T03:45:01.821Z,-2.40
2019-02-06T03:47:29.643Z,-2.30
2019-02-06T03:49:57.960Z,-2.40
2019-02-06T03:52:25.341Z,-2.50
2019-02-06T03:54:52.895Z,-2.50
2019-02-06T03:57:21.101Z,-2.70
2019-02-06T03:59:48.879Z,-2.80
2019-02-06T04:02:16.268Z,-2.80
2019-02-06T04:04:43.548Z,-2.80
2019-02-06T04:07:14.815Z,-2.80
2019-02-06T04:09:43.217Z,-2.90
2019-02-06T04:12:10.675Z,-2.90
2019-02-06T04:14:38.800Z,-3.00
2019-02-06T04:17:06.954Z,-3.00
2019-02-06T04:19:34.854Z,-3.00
2019-02-06T04:22:02.622Z,-3.00
2019-02-06T04:24:29.848Z,-3.00
2019-02-06T04:26:57.474Z,-2.90
2019-02-06T04:29:25.295Z,-2.80
2019-02-06T04:31:52.792Z,-2.60
2019-02-06T04:34:20.407Z,-2.60
2019-02-06T04:36:47.850Z,-2.70
2019-02-06T04:39:15.125Z,-2.40
2019-02-06T04:41:42.823Z,-2.60
2019-02-06T04:44:10.120Z,-2.80
2019-02-06T04:46:37.748Z,-2.80
2019-02-06T04:49:05.941Z,-2.80
2019-02-06T04:51:33.858Z,-2.70
2019-02-06T04:54:01.853Z,-2.80
2019-02-06T04:56:29.356Z,-2.70
2019-02-06T04:58:57.627Z,-2.70
2019-02-06T05:01:25.565Z,-3.00
2019-02-06T05:03:53.280Z,-3.10
2019-02-06T05:06:20.696Z,-3.20
2019-02-06T05:08:48.342Z,-3.30
2019-02-06T05:11:16.053Z,-3.30
2019-02-06T05:13:44.022Z,-3.10
2019-02-06T05:16:11.653Z,-3.20
2019-02-06T05:18:39.886Z,-3.20
2019-02-06T05:21:07.278Z,-2.90
2019-02-06T05:23:34.725Z,-3.20
2019-02-06T05:26:02.319Z,-3.30
2019-02-06T05:28:30.369Z,-3.10
2019-02-06T05:30:58.058Z,-3.10
2019-02-06T05:33:25.370Z,-3.20
2019-02-06T05:35:53.132Z,-3.10
2019-02-06T05:38:20.833Z,-3.00
2019-02-06T05:40:48.425Z,-3.20
2019-02-06T05:43:17.030Z,-3.30
2019-02-06T05:45:44.480Z,-3.10
2019-02-06T05:48:12.078Z,-3.00
2019-02-06T05:50:39.771Z,-3.10
2019-02-06T05:53:10.951Z,-3.10
2019-02-06T05:55:39.588Z,-3.20
2019-02-06T05:58:08.233Z,-3.30
2019-02-06T06:00:43.023Z,-3.30
2019-02-06T06:03:10.806Z,-3.30
2019-02-06T06:05:38.513Z,-3.30
2019-02-06T06:08:06.932Z,-3.20
2019-02-06T06:10:34.320Z,-3.20
2019-02-06T06:13:02.058Z,-2.90
2019-02-06T06:15:29.343Z,-3.10
2019-02-06T06:17:56.946Z,-3.00
2019-02-06T06:20:25.169Z,-2.90
2019-02-06T06:22:53.446Z,-3.00
2019-02-06T06:25:21.979Z,-3.10
2019-02-06T06:27:49.262Z,-3.20
2019-02-06T06:30:18.090Z,-3.10
2019-02-06T06:32:46.229Z,-3.10
2019-02-06T06:35:18.855Z,-3.10
2019-02-06T06:37:57.693Z,-3.20
2019-02-06T06:40:19.196Z,-3.10
2019-02-06T06:42:47.458Z,-2.90
2019-02-06T06:45:18.333Z,-2.80
2019-02-06T06:47:46.183Z,-2.90
2019-02-06T06:50:16.904Z,-2.90
2019-02-06T06:52:44.391Z,-2.80
2019-02-06T06:55:13.182Z,-2.70
2019-02-06T06:57:40.864Z,-2.80
2019-02-06T07:00:17.247Z,-2.80
2019-02-06T07:02:45.294Z,-2.80
2019-02-06T07:05:13.204Z,-2.80
2019-02-06T07:07:41.567Z,-2.70
2019-02-06T07:10:12.328Z,-2.70
2019-02-06T07:12:39.809Z,-2.60
2019-02-06T07:15:11.919Z,-2.60
2019-02-06T07:17:39.490Z,-2.40
2019-02-06T07:20:10.192Z,-2.50
2019-02-06T07:22:37.896Z,-2.40
2019-02-06T07:25:06.649Z,-2.40
2019-02-06T07:27:34.846Z,-2.20
2019-02-06T07:30:05.414Z,-2.10
2019-02-06T07:32:36.157Z,-2.10
2019-02-06T07:35:03.022Z,-2.00
2019-02-06T07:37:30.901Z,-1.90
2019-02-06T07:39:58.611Z,-1.90
2019-02-06T07:42:26.054Z,-1.80
2019-02-06T07:44:54.162Z,-1.70
2019-02-06T07:47:21.540Z,-1.70
2019-02-06T07:49:48.813Z,-1.60
2019-02-06T07:52:16.925Z,-1.50
2019-02-06T07:54:44.574Z,-1.40
2019-02-06T07:57:12.106Z,-1.40
2019-02-06T07:59:39.487Z,-1.40
2019-02-06T08:02:08.006Z,-1.30
2019-02-06T08:04:35.800Z,-1.20
2019-02-06T08:07:03.637Z,-1.10
2019-02-06T08:09:31.563Z,-1.00
2019-02-06T08:11:59.363Z,-0.90
2019-02-06T08:14:27.306Z,-0.80
2019-02-06T08:16:55.275Z,-0.80
2019-02-06T08:19:23.333Z,-0.70
2019-02-06T08:21:50.712Z,-0.60
2019-02-06T08:24:18.738Z,-0.50
2019-02-06T08:26:46.890Z,-0.50
2019-02-06T08:29:14.731Z,-0.40
2019-02-06T08:31:42.504Z,-0.30
2019-02-06T08:34:10.098Z,-0.20
2019-02-06T08:36:40.026Z,-0.10
2019-02-06T08:39:08.865Z,0.00
2019-02-06T08:41:36.623Z,0.10
2019-02-06T08:44:04.213Z,0.20
2019-02-06T08:46:31.843Z,0.30
2019-02-06T08:48:59.404Z,0.40
2019-02-06T08:51:26.911Z,0.50
2019-02-06T08:53:54.589Z,0.60
2019-02-06T08:56:21.848Z,0.60
2019-02-06T08:58:49.395Z,0.60
2019-02-06T09:01:16.826Z,0.60
2019-02-06T09:03:44.170Z,0.70
2019-02-06T09:06:11.818Z,0.80
2019-02-06T09:08:39.162Z,0.90
2019-02-06T09:11:07.010Z,1.10
2019-02-06T09:13:34.789Z,1.20
2019-02-06T09:16:02.745Z,1.10
2019-02-06T09:18:30.137Z,1.30
2019-02-06T09:20:58.121Z,1.30
2019-02-06T09:23:25.357Z,1.30
2019-02-06T09:25:53.223Z,1.40
2019-02-06T09:28:20.625Z,1.50
2019-02-06T09:30:48.208Z,1.50
2019-02-06T09:33:16.090Z,1.50
2019-02-06T09:35:43.619Z,1.60
2019-02-06T09:38:11.757Z,1.70
2019-02-06T09:40:39.294Z,1.80
2019-02-06T09:43:07.296Z,2.10
2019-02-06T09:45:35.375Z,2.30
2019-02-06T09:48:04.232Z,2.30
2019-02-06T09:50:34.787Z,2.50
2019-02-06T09:53:02.410Z,2.60
2019-02-06T09:55:29.956Z,2.70
2019-02-06T09:57:57.843Z,2.80
2019-02-06T10:00:28.862Z,3.00
2019-02-06T10:02:56.493Z,2.80
2019-02-06T10:05:24.389Z,2.90
2019-02-06T10:07:51.870Z,3.00
2019-02-06T10:10:21.278Z,3.20
2019-02-06T10:12:49.171Z,3.20
2019-02-06T10:15:31.561Z,3.70
2019-02-06T10:18:03.961Z,4.10
2019-02-06T10:20:52.423Z,4.60
2019-02-06T10:23:19.825Z,4.80
2019-02-06T10:25:47.169Z,5.00
2019-02-06T10:28:15.109Z,4.90
2019-02-06T10:30:50.955Z,4.80
2019-02-06T10:33:19.345Z,4.90
2019-02-06T10:35:47.205Z,4.60
2019-02-06T10:38:15.836Z,5.10
2019-02-06T10:40:44.282Z,5.20
2019-02-06T10:43:12.661Z,5.60
2019-02-06T10:45:40.698Z,5.60
2019-02-06T10:48:08.152Z,6.00
2019-02-06T10:50:45.584Z,6.20
2019-02-06T10:53:13.067Z,6.50
2019-02-06T10:55:40.800Z,7.00
2019-02-06T10:58:08.937Z,7.00
2019-02-06T11:00:45.326Z,6.90
2019-02-06T11:03:13.037Z,7.20
2019-02-06T11:05:41.180Z,7.20
2019-02-06T11:08:08.829Z,6.90
2019-02-06T11:10:36.594Z,6.90
2019-02-06T11:13:05.191Z,7.00
2019-02-06T11:15:33.744Z,7.10
2019-02-06T11:18:01.836Z,7.30
2019-02-06T11:20:30.610Z,7.10
2019-02-06T11:22:58.561Z,7.20
2019-02-06T11:25:25.900Z,7.50
2019-02-06T11:27:53.263Z,7.40
2019-02-06T11:30:23.935Z,7.40
2019-02-06T11:32:52.110Z,7.70
2019-02-06T11:35:19.508Z,8.00
2019-02-06T11:37:47.234Z,7.60
2019-02-06T11:40:19.344Z,7.70
2019-02-06T11:42:47.301Z,8.30
2019-02-06T11:45:18.521Z,8.30
2019-02-06T11:47:46.459Z,8.10
2019-02-06T11:50:16.963Z,8.00
2019-02-06T11:52:45.384Z,7.70
2019-02-06T11:55:16.559Z,8.00
2019-02-06T11:57:44.965Z,7.60
2019-02-06T12:00:18.523Z,7.90
2019-02-06T12:02:46.159Z,8.20
2019-02-06T12:05:14.219Z,8.30
2019-02-06T12:07:41.600Z,7.90
2019-02-06T12:10:13.513Z,7.60
2019-02-06T12:12:42.071Z,7.60
2019-02-06T12:15:14.789Z,7.80
2019-02-06T12:17:43.672Z,7.80
2019-02-06T12:20:15.657Z,8.20
2019-02-06T12:22:43.500Z,7.60
2019-02-06T12:25:11.856Z,7.60
2019-02-06T12:27:39.836Z,7.70
2019-02-06T12:30:23.676Z,7.50
2019-02-06T12:32:52.342Z,7.50
2019-02-06T12:35:20.878Z,7.50
2019-02-06T12:37:48.933Z,7.50
2019-02-06T12:40:21.772Z,7.40
2019-02-06T12:42:47.254Z,7.30
2019-02-06T12:45:16.571Z,7.50
2019-02-06T12:47:44.098Z,7.40
2019-02-06T12:50:13.326Z,7.30
2019-02-06T12:52:41.013Z,7.40
2019-02-06T12:55:19.560Z,7.40
2019-02-06T12:57:46.265Z,7.40
2019-02-06T13:00:27.478Z,7.50
2019-02-06T13:02:59.674Z,7.40
2019-02-06T13:05:25.757Z,7.70
2019-02-06T13:07:54.084Z,7.50
2019-02-06T13:10:32.947Z,7.40
2019-02-06T13:12:51.770Z,7.60
2019-02-06T13:15:19.328Z,7.70
2019-02-06T13:17:48.057Z,7.80
2019-02-06T13:20:21.109Z,8.00
2019-02-06T13:22:49.334Z,8.00
2019-02-06T13:25:17.050Z,7.80
2019-02-06T13:27:44.591Z,7.70
2019-02-06T13:30:27.906Z,8.00
2019-02-06T13:32:56.054Z,7.90
2019-02-06T13:35:23.615Z,7.60
2019-02-06T13:37:51.561Z,7.90
2019-02-06T13:40:24.660Z,7.90
2019-02-06T13:42:52.246Z,7.90
2019-02-06T13:45:30.121Z,7.80
2019-02-06T13:47:59.028Z,7.80
2019-02-06T13:50:28.306Z,8.00
2019-02-06T13:52:56.090Z,7.90
2019-02-06T13:55:24.019Z,8.00
2019-02-06T13:57:51.628Z,7.90
2019-02-06T14:00:25.650Z,7.80
2019-02-06T14:02:52.997Z,7.90
2019-02-06T14:05:24.267Z,7.80
2019-02-06T14:07:54.483Z,7.90
2019-02-06T14:10:23.224Z,7.80
2019-02-06T14:12:51.325Z,7.80
2019-02-06T14:15:21.018Z,7.80
2019-02-06T14:17:48.437Z,7.70
2019-02-06T14:20:18.669Z,7.50
2019-02-06T14:22:51.202Z,7.50
2019-02-06T14:25:58.527Z,7.40
2019-02-06T14:29:07.722Z,7.50
2019-02-06T14:32:29.678Z,7.40
2019-02-06T14:35:46.780Z,7.30
2019-02-06T14:39:04.644Z,7.30
2019-02-06T14:42:23.732Z,7.40
2019-02-06T14:45:50.757Z,7.50
2019-02-06T14:49:01.639Z,7.60
2019-02-06T14:52:54.367Z,7.70
2019-02-06T14:56:14.053Z,7.50
2019-02-06T14:59:19.525Z,7.60
2019-02-06T15:03:02.929Z,7.50
2019-02-06T15:06:10.086Z,7.50
2019-02-06T15:09:39.436Z,7.50
2019-02-06T15:13:14.634Z,7.40
2019-02-06T15:16:50.051Z,7.60
2019-02-06T15:20:28.239Z,7.40
2019-02-06T15:23:40.126Z,7.40
2019-02-06T15:27:16.886Z,7.30
2019-02-06T15:30:23.977Z,7.20
2019-02-06T15:33:38.381Z,7.20
2019-02-06T15:37:18.423Z,7.10
2019-02-06T15:40:56.672Z,6.90
2019-02-06T15:44:24.618Z,6.80
2019-02-06T15:47:26.159Z,6.50
2019-02-06T15:50:33.592Z,6.40
2019-02-06T15:53:44.807Z,6.30
2019-02-06T15:56:53.829Z,6.30
2019-02-06T16:00:04.036Z,6.30
2019-02-06T16:03:29.730Z,6.10
2019-02-06T16:06:41.315Z,5.90
2019-02-06T16:10:04.339Z,5.70
2019-02-06T16:13:26.554Z,5.60
2019-02-06T16:16:54.591Z,5.50
2019-02-06T16:20:16.966Z,5.30
2019-02-06T16:23:45.635Z,5.20
2019-02-06T16:27:10.946Z,5.00
2019-02-06T16:30:18.779Z,4.90
2019-02-06T16:34:24.050Z,4.80
2019-02-06T16:37:38.803Z,4.70
2019-02-06T16:41:16.940Z,4.50
2019-02-06T16:44:10.167Z,4.40
2019-02-06T16:47:45.970Z,4.20
2019-02-06T16:51:07.167Z,4.10
2019-02-06T16:54:08.945Z,4.10
2019-02-06T16:56:59.032Z,4.10
2019-02-06T17:00:21.035Z,4.00
2019-02-06T17:03:38.427Z,3.90
2019-02-06T17:06:26.159Z,3.60
2019-02-06T17:10:04.936Z,3.60
2019-02-06T17:13:14.027Z,3.50
2019-02-06T17:16:24.000Z,3.40
2019-02-06T17:20:17.194Z,3.30
2019-02-06T17:23:39.714Z,3.10
2019-02-06T17:26:56.466Z,2.90
2019-02-06T17:30:16.760Z,2.80
2019-02-06T17:33:35.380Z,2.60
2019-02-06T17:36:50.138Z,2.60
2019-02-06T17:39:52.907Z,2.50
2019-02-06T17:43:27.760Z,2.50
2019-02-06T17:46:49.534Z,2.30
2019-02-06T17:50:42.711Z,2.60
2019-02-06T17:53:51.886Z,2.60
2019-02-06T17:56:20.125Z,2.70
2019-02-06T17:58:47.849Z,2.60
2019-02-06T18:01:39.544Z,2.50
2019-02-06T18:04:19.548Z,2.40
2019-02-06T18:06:47.037Z,2.30
2019-02-06T18:09:16.939Z,2.10
2019-02-06T18:11:47.003Z,2.10
2019-02-06T18:14:14.924Z,1.90
2019-02-06T18:16:43.410Z,1.90
2019-02-06T18:19:11.437Z,1.90
2019-02-06T18:21:38.777Z,1.90
2019-02-06T18:24:07.210Z,1.80
2019-02-06T18:26:44.160Z,1.60
2019-02-06T18:29:11.753Z,1.50
2019-02-06T18:31:39.068Z,1.70
2019-02-06T18:34:08.358Z,1.70
2019-02-06T18:36:36.410Z,1.60
2019-02-06T18:39:12.912Z,1.40
2019-02-06T18:41:40.651Z,1.40
2019-02-06T18:44:08.802Z,1.40
2019-02-06T18:46:36.842Z,1.50
2019-02-06T18:49:05.312Z,1.40
2019-02-06T18:51:33.070Z,1.30
2019-02-06T18:54:00.830Z,1.20
2019-02-06T18:56:28.278Z,1.10
2019-02-06T18:58:55.631Z,1.30
2019-02-06T19:01:24.101Z,1.30
2019-02-06T19:03:51.675Z,1.20
2019-02-06T19:06:19.673Z,1.00
2019-02-06T19:08:47.443Z,1.10
2019-02-06T19:11:15.282Z,1.20
2019-02-06T19:13:42.790Z,0.90
2019-02-06T19:16:10.041Z,0.70
2019-02-06T19:18:37.529Z,0.70
2019-02-06T19:21:05.674Z,0.70
2019-02-06T19:23:34.216Z,0.50
2019-02-06T19:26:02.199Z,0.50
2019-02-06T19:28:29.588Z,0.50
2019-02-06T19:30:56.921Z,0.40
2019-02-06T19:33:24.635Z,0.50
2019-02-06T19:35:52.086Z,0.40
2019-02-06T19:38:19.339Z,0.30
2019-02-06T19:40:46.689Z,0.30
2019-02-06T19:43:14.496Z,0.20
2019-02-06T19:45:42.196Z,0.10
2019-02-06T19:48:16.059Z,0.00
2019-02-06T19:50:40.191Z,-0.10
2019-02-06T19:53:08.338Z,0.10
2019-02-06T19:55:35.716Z,-0.10
2019-02-06T19:58:04.086Z,-0.10
2019-02-06T20:00:32.090Z,-0.10
2019-02-06T20:02:59.562Z,-0.20
2019-02-06T20:05:28.043Z,-0.30
2019-02-06T20:07:55.910Z,-0.30
2019-02-06T20:10:30.406Z,-0.40
2019-02-06T20:12:58.451Z,-0.50
2019-02-06T20:15:25.820Z,-0.70
2019-02-06T20:17:53.730Z,-0.80
2019-02-06T20:20:21.851Z,-0.60
2019-02-06T20:22:51.489Z,-0.30
2019-02-06T20:25:19.354Z,-0.50
2019-02-06T20:27:48.170Z,-0.60
2019-02-06T20:30:19.599Z,-0.80
2019-02-06T20:32:47.614Z,-0.70
2019-02-06T20:35:15.237Z,-0.80
2019-02-06T20:37:42.488Z,-0.70
2019-02-06T20:40:15.012Z,-0.80
2019-02-06T20:42:42.836Z,-0.90
2019-02-06T20:45:10.943Z,-0.90
2019-02-06T20:47:38.685Z,-1.10
2019-02-06T20:50:13.109Z,-1.30
2019-02-06T20:52:40.863Z,-1.20
2019-02-06T20:55:09.000Z,-1.30
2019-02-06T20:57:36.763Z,-1.30
2019-02-06T21:00:07.532Z,-1.40
2019-02-06T21:02:35.042Z,-1.40
2019-02-06T21:05:04.012Z,-1.40
2019-02-06T21:07:31.660Z,-1.20
2019-02-06T21:09:58.825Z,-1.30
2019-02-06T21:12:26.554Z,-1.50
2019-02-06T21:14:54.859Z,-1.30
2019-02-06T21:17:22.379Z,-1.20
2019-02-06T21:19:49.900Z,-1.40
2019-02-06T21:22:17.612Z,-1.30
2019-02-06T21:24:45.227Z,-1.50
2019-02-06T21:27:12.970Z,-1.70
2019-02-06T21:29:40.776Z,-1.80
2019-02-06T21:32:07.989Z,-1.80
2019-02-06T21:34:35.741Z,-1.70
2019-02-06T21:37:03.326Z,-1.80
2019-02-06T21:39:31.343Z,-1.80
2019-02-06T21:41:58.705Z,-1.80
2019-02-06T21:44:26.281Z,-2.00
2019-02-06T21:46:54.095Z,-2.10
2019-02-06T21:49:21.817Z,-1.90
2019-02-06T21:51:49.477Z,-1.80
2019-02-06T21:54:17.277Z,-2.10
2019-02-06T21:56:44.913Z,-2.00
2019-02-06T21:59:12.436Z,-1.70
2019-02-06T22:01:40.061Z,-1.70
2019-02-06T22:04:08.000Z,-1.70
2019-02-06T22:06:35.389Z,-1.70
2019-02-06T22:09:09.173Z,-1.70
2019-02-06T22:11:36.642Z,-1.70
2019-02-06T22:14:04.314Z,-1.70
2019-02-06T22:16:31.869Z,-1.70
2019-02-06T22:18:59.523Z,-1.70
2019-02-06T22:21:26.904Z,-1.80
2019-02-06T22:23:55.350Z,-1.80
2019-02-06T22:26:23.374Z,-1.80
2019-02-06T22:28:50.883Z,-1.80
2019-02-06T22:31:18.236Z,-1.80
2019-02-06T22:33:46.033Z,-1.70
2019-02-06T22:36:13.311Z,-1.70
2019-02-06T22:38:40.910Z,-1.70
2019-02-06T22:41:08.663Z,-1.70
2019-02-06T22:43:36.155Z,-1.80
2019-02-06T22:46:04.212Z,-1.80
2019-02-06T22:48:32.543Z,-1.80
2019-02-06T22:51:00.195Z,-1.90
2019-02-06T22:53:27.726Z,-2.00
2019-02-06T22:55:54.876Z,-2.00
2019-02-06T22:58:23.165Z,-2.00
2019-02-06T23:01:25.082Z,-1.90
2019-02-06T23:03:52.569Z,-2.00
2019-02-06T23:06:21.082Z,-2.20
2019-02-06T23:08:48.982Z,-2.20
2019-02-06T23:11:20.672Z,-2.10
2019-02-06T23:13:48.432Z,-1.90
2019-02-06T23:16:16.032Z,-2.00
2019-02-06T23:18:43.579Z,-1.90
2019-02-06T23:21:11.042Z,-1.90
2019-02-06T23:23:39.242Z,-2.00
2019-02-06T23:26:07.119Z,-1.90
2019-02-06T23:28:35.133Z,-1.90
2019-02-06T23:31:02.665Z,-1.90
2019-02-06T23:33:30.795Z,-1.90
2019-02-06T23:35:58.641Z,-1.90
2019-02-06T23:38:26.674Z,-2.00
2019-02-06T23:40:54.400Z,-2.00
2019-02-06T23:43:21.974Z,-2.10
2019-02-06T23:45:49.336Z,-2.10
2019-02-06T23:48:16.746Z,-2.20
2019-02-06T23:50:43.972Z,-2.30
2019-02-06T23:53:12.010Z,-2.30
2019-02-06T23:55:40.009Z,-2.30
2019-02-06T23:58:07.485Z,-2.30
